createdAt,value
2017-10-11T00:00:59.289Z,0.00
2017-10-11T00:01:59.155Z,0.00
2017-10-11T00:04:00.135Z,0.00
2017-10-11T00:04:52.488Z,0.00
2017-10-11T00:06:53.551Z,0.00
2017-10-11T00:07:53.607Z,0.00
2017-10-11T00:09:49.010Z,0.00
2017-10-11T00:10:40.371Z,0.00
2017-10-11T00:12:43.404Z,0.00
2017-10-11T00:13:34.788Z,0.00
2017-10-11T00:15:38.893Z,0.00
2017-10-11T00:16:36.904Z,0.00
2017-10-11T00:18:30.226Z,0.00
2017-10-11T00:19:22.567Z,0.00
2017-10-11T00:21:23.790Z,0.00
2017-10-11T00:22:16.095Z,0.00
2017-10-11T00:24:18.305Z,0.00
2017-10-11T00:25:10.550Z,0.00
2017-10-11T00:27:11.608Z,0.00
2017-10-11T00:28:03.928Z,0.00
2017-10-11T00:30:06.149Z,0.00
2017-10-11T00:30:57.428Z,0.00
2017-10-11T00:32:59.526Z,0.00
2017-10-11T00:33:59.429Z,0.00
2017-10-11T00:35:52.915Z,0.00
2017-10-11T00:36:44.179Z,0.00
2017-10-11T00:38:47.229Z,0.00
2017-10-11T00:39:38.593Z,0.00
2017-10-11T00:41:41.639Z,0.00
2017-10-11T00:42:33.809Z,0.00
2017-10-11T00:44:34.950Z,0.00
2017-10-11T00:45:27.281Z,0.00
2017-10-11T00:47:29.335Z,0.00
2017-10-11T00:48:20.616Z,0.00
2017-10-11T00:50:21.723Z,0.00
2017-10-11T00:51:22.728Z,0.00
2017-10-11T00:53:08.601Z,0.00
2017-10-11T00:54:17.148Z,0.00
2017-10-11T00:56:01.989Z,0.00
2017-10-11T00:57:09.511Z,0.00
2017-10-11T00:59:02.965Z,0.00
2017-10-11T00:59:55.277Z,0.00
2017-10-11T01:01:56.385Z,0.00
2017-10-11T01:02:48.670Z,0.00
2017-10-11T01:04:50.673Z,0.00
2017-10-11T01:05:42.117Z,0.00
2017-10-11T01:07:44.146Z,0.00
2017-10-11T01:08:36.434Z,0.00
2017-10-11T01:10:37.553Z,0.00
2017-10-11T01:11:29.833Z,0.00
2017-10-11T01:13:31.976Z,0.00
2017-10-11T01:14:31.891Z,0.00
2017-10-11T01:16:24.331Z,0.00
2017-10-11T01:17:16.823Z,0.00
2017-10-11T01:19:18.779Z,0.00
2017-10-11T01:20:20.769Z,0.00
2017-10-11T01:22:12.264Z,0.00
2017-10-11T01:23:13.228Z,0.00
2017-10-11T01:25:06.600Z,0.00
2017-10-11T01:26:07.648Z,0.00
2017-10-11T01:28:01.113Z,0.00
2017-10-11T01:28:53.320Z,0.00
2017-10-11T01:30:56.439Z,0.00
2017-10-11T01:31:47.704Z,0.00
2017-10-11T01:33:48.892Z,0.00
2017-10-11T01:34:41.282Z,0.00
2017-10-11T01:36:42.302Z,0.00
2017-10-11T01:37:34.667Z,0.00
2017-10-11T01:39:36.737Z,0.00
2017-10-11T01:40:36.871Z,0.00
2017-10-11T01:42:31.099Z,0.00
2017-10-11T01:43:23.343Z,0.00
2017-10-11T01:45:16.973Z,0.00
2017-10-11T01:46:16.742Z,0.00
2017-10-11T01:48:17.918Z,0.00
2017-10-11T01:49:10.174Z,0.00
2017-10-11T01:51:11.286Z,0.00
2017-10-11T01:52:12.192Z,0.00
2017-10-11T01:54:04.875Z,0.00
2017-10-11T01:54:57.138Z,0.00
2017-10-11T01:57:00.151Z,0.00
2017-10-11T01:57:51.382Z,0.00
2017-10-11T01:59:55.362Z,0.00
2017-10-11T02:00:54.515Z,0.00
2017-10-11T02:02:46.914Z,0.00
2017-10-11T02:03:48.826Z,0.00
2017-10-11T02:05:41.429Z,0.00
2017-10-11T02:06:42.208Z,0.00
2017-10-11T02:08:35.799Z,0.00
2017-10-11T02:09:27.033Z,0.00
2017-10-11T02:11:28.084Z,0.00
2017-10-11T02:12:28.054Z,0.00
2017-10-11T02:14:21.448Z,0.00
2017-10-11T02:15:21.540Z,0.00
2017-10-11T02:17:16.900Z,0.00
2017-10-11T02:18:08.289Z,0.00
2017-10-11T02:20:10.308Z,0.00
2017-10-11T02:21:09.390Z,0.00
2017-10-11T02:23:03.786Z,0.00
2017-10-11T02:23:55.030Z,0.00
2017-10-11T02:25:56.162Z,0.00
2017-10-11T02:26:57.121Z,0.00
2017-10-11T02:28:41.952Z,0.00
2017-10-11T02:29:41.795Z,0.00
2017-10-11T02:31:43.958Z,0.00
2017-10-11T02:32:36.221Z,0.00
2017-10-11T02:34:38.345Z,0.00
2017-10-11T02:35:30.691Z,0.00
2017-10-11T02:37:31.929Z,0.00
2017-10-11T02:38:24.197Z,0.00
2017-10-11T02:40:25.248Z,0.00
2017-10-11T02:41:17.650Z,0.00
2017-10-11T02:43:19.608Z,0.00
2017-10-11T02:44:20.503Z,0.00
2017-10-11T02:46:06.429Z,0.00
2017-10-11T02:47:06.283Z,0.00
2017-10-11T02:49:01.752Z,0.00
2017-10-11T02:50:09.512Z,0.00
2017-10-11T02:52:03.876Z,0.00
2017-10-11T02:52:56.102Z,0.00
2017-10-11T02:54:59.174Z,0.00
2017-10-11T02:55:59.303Z,0.00
2017-10-11T02:57:53.628Z,0.00
2017-10-11T02:58:44.997Z,0.00
2017-10-11T03:00:47.048Z,0.00
2017-10-11T03:01:38.388Z,0.00
2017-10-11T03:03:39.445Z,0.00
2017-10-11T03:04:39.541Z,0.00
2017-10-11T03:06:34.103Z,0.00
2017-10-11T03:07:26.383Z,0.00
2017-10-11T03:09:27.266Z,0.00
2017-10-11T03:10:27.195Z,0.00
2017-10-11T03:12:21.899Z,0.00
2017-10-11T03:13:14.121Z,0.00
2017-10-11T03:15:15.176Z,0.00
2017-10-11T03:16:07.495Z,0.00
2017-10-11T03:18:09.472Z,0.00
2017-10-11T03:19:09.518Z,0.00
2017-10-11T03:21:03.023Z,0.00
2017-10-11T03:21:55.362Z,0.00
2017-10-11T03:23:58.325Z,0.00
2017-10-11T03:24:49.758Z,0.00
2017-10-11T03:26:51.880Z,0.00
2017-10-11T03:27:44.060Z,0.00
2017-10-11T03:29:45.196Z,0.00
2017-10-11T03:30:37.428Z,0.00
2017-10-11T03:32:39.547Z,0.00
2017-10-11T03:33:30.848Z,0.00
2017-10-11T03:35:24.261Z,0.00
2017-10-11T03:36:24.277Z,0.00
2017-10-11T03:38:27.528Z,0.00
2017-10-11T03:39:18.732Z,0.00
2017-10-11T03:41:20.794Z,0.00
2017-10-11T03:42:21.842Z,0.00
2017-10-11T03:44:15.294Z,0.00
2017-10-11T03:45:15.192Z,0.00
2017-10-11T03:47:09.497Z,0.00
2017-10-11T03:48:00.870Z,0.00
2017-10-11T03:49:54.363Z,0.00
2017-10-11T03:50:54.297Z,0.00
2017-10-11T03:52:56.392Z,0.00
2017-10-11T03:53:47.718Z,0.00
2017-10-11T03:55:48.849Z,0.00
2017-10-11T03:56:41.133Z,0.00
2017-10-11T03:58:42.078Z,0.00
2017-10-11T03:59:34.483Z,0.00
2017-10-11T04:01:35.703Z,0.00
2017-10-11T04:02:27.911Z,0.00
2017-10-11T04:04:29.093Z,0.00
2017-10-11T04:05:30.144Z,0.00
2017-10-11T04:07:23.370Z,0.00
2017-10-11T04:08:15.823Z,0.00
2017-10-11T04:10:17.797Z,0.00
2017-10-11T04:11:09.217Z,0.00
2017-10-11T04:13:10.132Z,0.00
2017-10-11T04:14:02.507Z,0.00
2017-10-11T04:16:03.549Z,0.00
2017-10-11T04:16:55.915Z,0.00
2017-10-11T04:18:59.055Z,0.00
2017-10-11T04:19:51.316Z,0.00
2017-10-11T04:21:54.511Z,0.00
2017-10-11T04:22:52.593Z,0.00
2017-10-11T04:24:47.944Z,0.00
2017-10-11T04:25:46.841Z,0.00
2017-10-11T04:27:40.176Z,0.00
2017-10-11T04:28:32.570Z,0.00
2017-10-11T04:30:33.641Z,0.00
2017-10-11T04:31:26.001Z,0.00
2017-10-11T04:33:26.984Z,0.00
2017-10-11T04:34:19.417Z,0.00
2017-10-11T04:36:12.781Z,0.00
2017-10-11T04:37:12.773Z,0.00
2017-10-11T04:39:13.940Z,0.00
2017-10-11T04:40:06.245Z,0.00
2017-10-11T04:41:59.582Z,0.00
2017-10-11T04:42:59.588Z,0.00
2017-10-11T04:45:00.741Z,0.00
2017-10-11T04:45:53.047Z,0.00
2017-10-11T04:47:54.056Z,0.00
2017-10-11T04:48:46.353Z,0.00
2017-10-11T04:50:49.546Z,0.00
2017-10-11T04:51:40.799Z,0.00
2017-10-11T04:53:44.165Z,0.00
2017-10-11T04:54:36.331Z,0.00
2017-10-11T04:56:32.740Z,0.00
2017-10-11T04:57:32.652Z,0.00
2017-10-11T04:59:34.789Z,0.00
2017-10-11T05:00:27.122Z,0.00
2017-10-11T05:02:29.136Z,0.00
2017-10-11T05:03:20.551Z,0.00
2017-10-11T05:05:13.842Z,0.00
2017-10-11T05:06:13.920Z,0.00
2017-10-11T05:08:07.302Z,0.00
2017-10-11T05:09:07.301Z,0.00
2017-10-11T05:11:08.461Z,0.00
2017-10-11T05:12:00.661Z,0.00
2017-10-11T05:14:01.740Z,0.00
2017-10-11T05:14:54.153Z,0.00
2017-10-11T05:16:55.228Z,0.00
2017-10-11T05:17:47.560Z,0.00
2017-10-11T05:19:48.473Z,0.00
2017-10-11T05:20:40.926Z,0.00
2017-10-11T05:22:41.918Z,0.00
2017-10-11T05:23:34.273Z,0.00
2017-10-11T05:25:27.635Z,0.00
2017-10-11T05:26:27.650Z,0.00
2017-10-11T05:28:21.186Z,0.00
2017-10-11T05:29:21.093Z,0.00
2017-10-11T05:31:14.471Z,0.00
2017-10-11T05:32:14.470Z,0.00
2017-10-11T05:34:15.633Z,0.00
2017-10-11T05:35:07.901Z,0.00
2017-10-11T05:37:09.935Z,5.63
2017-10-11T05:38:01.395Z,5.63
2017-10-11T05:40:02.425Z,5.63
2017-10-11T05:40:54.745Z,5.63
2017-10-11T05:42:55.762Z,5.63
2017-10-11T05:43:55.790Z,5.63
2017-10-11T05:45:49.104Z,11.25
2017-10-11T05:46:41.461Z,11.25
2017-10-11T05:48:43.602Z,11.25
2017-10-11T05:49:35.923Z,11.25
2017-10-11T05:51:37.003Z,11.25
2017-10-11T05:52:37.013Z,16.88
2017-10-11T05:54:22.799Z,16.88
2017-10-11T05:55:22.717Z,16.88
2017-10-11T05:57:16.208Z,22.50
2017-10-11T05:58:16.116Z,22.50
2017-10-11T06:00:18.346Z,22.50
2017-10-11T06:01:10.770Z,22.50
2017-10-11T06:03:04.112Z,28.13
2017-10-11T06:04:04.086Z,28.13
2017-10-11T06:05:57.560Z,28.13
2017-10-11T06:06:57.488Z,28.13
2017-10-11T06:08:59.541Z,33.75
2017-10-11T06:09:50.919Z,33.75
2017-10-11T06:11:51.959Z,33.75
2017-10-11T06:12:44.437Z,33.75
2017-10-11T06:14:45.432Z,39.38
2017-10-11T06:15:37.756Z,39.38
2017-10-11T06:17:38.771Z,39.38
2017-10-11T06:18:31.205Z,39.38
2017-10-11T06:20:32.410Z,45.00
2017-10-11T06:21:24.511Z,45.00
2017-10-11T06:23:18.874Z,45.00
2017-10-11T06:24:18.922Z,50.63
2017-10-11T06:26:20.039Z,50.63
2017-10-11T06:27:12.400Z,50.63
2017-10-11T06:29:14.582Z,50.63
2017-10-11T06:30:09.123Z,50.63
2017-10-11T06:32:06.914Z,50.63
2017-10-11T06:32:59.357Z,50.63
2017-10-11T06:35:00.384Z,50.63
2017-10-11T06:35:52.775Z,50.63
2017-10-11T06:37:54.846Z,56.25
2017-10-11T06:38:46.118Z,56.25
2017-10-11T06:40:39.525Z,56.25
2017-10-11T06:41:39.586Z,56.25
2017-10-11T06:43:41.219Z,56.25
2017-10-11T06:44:32.975Z,56.25
2017-10-11T06:46:33.953Z,61.88
2017-10-11T06:49:27.465Z,61.88
2017-10-11T06:50:20.925Z,67.50
2017-10-11T06:52:20.742Z,73.13
2017-10-11T06:53:13.175Z,73.13
2017-10-11T06:58:08.687Z,84.38
2017-10-11T06:59:01.072Z,90.00
2017-10-11T07:01:01.944Z,90.00
2017-10-11T07:01:54.407Z,95.63
2017-10-11T07:03:55.446Z,95.63
2017-10-11T07:04:47.767Z,101.25
2017-10-11T07:06:55.005Z,106.88
2017-10-11T07:07:46.332Z,106.88
2017-10-11T07:09:39.595Z,106.88
2017-10-11T07:10:39.660Z,112.50
2017-10-11T07:12:33.123Z,112.50
2017-10-11T07:13:33.044Z,112.50
2017-10-11T07:15:26.489Z,112.50
2017-10-11T07:16:26.436Z,112.50
2017-10-11T07:18:19.810Z,112.50
2017-10-11T07:19:19.812Z,118.13
2017-10-11T07:21:14.173Z,118.13
2017-10-11T07:22:14.244Z,118.13
2017-10-11T07:24:08.823Z,118.13
2017-10-11T07:25:08.738Z,118.13
2017-10-11T07:27:02.174Z,112.50
2017-10-11T07:28:02.201Z,106.88
2017-10-11T07:29:55.473Z,106.88
2017-10-11T07:30:55.430Z,112.50
2017-10-11T07:32:48.820Z,112.50
2017-10-11T07:33:48.812Z,112.50
2017-10-11T07:35:42.218Z,112.50
2017-10-11T07:36:42.217Z,112.50
2017-10-11T07:38:35.679Z,106.88
2017-10-11T07:39:35.662Z,106.88
2017-10-11T07:41:29.023Z,101.25
2017-10-11T07:42:29.043Z,95.63
2017-10-11T07:44:22.441Z,95.63
2017-10-11T07:45:22.396Z,95.63
2017-10-11T07:47:16.956Z,95.63
2017-10-11T07:48:16.778Z,101.25
2017-10-11T07:50:10.263Z,106.88
2017-10-11T07:51:10.180Z,106.88
2017-10-11T07:53:04.586Z,112.50
2017-10-11T07:54:04.751Z,112.50
2017-10-11T07:55:59.130Z,118.13
2017-10-11T07:56:59.099Z,118.13
2017-10-11T07:58:52.466Z,118.13
2017-10-11T07:59:52.433Z,123.75
2017-10-11T08:01:47.910Z,123.75
2017-10-11T08:02:47.951Z,123.75
2017-10-11T08:04:41.349Z,123.75
2017-10-11T08:05:41.386Z,123.75
2017-10-11T08:07:34.728Z,123.75
2017-10-11T08:08:34.658Z,123.75
2017-10-11T08:10:29.116Z,123.75
2017-10-11T08:11:29.217Z,123.75
2017-10-11T08:13:23.514Z,123.75
2017-10-11T08:14:23.532Z,118.13
2017-10-11T08:16:26.569Z,118.13
2017-10-11T08:17:17.995Z,112.50
2017-10-11T08:19:19.974Z,112.50
2017-10-11T08:20:12.313Z,112.50
2017-10-11T08:22:05.658Z,106.88
2017-10-11T08:23:05.716Z,112.50
2017-10-11T08:24:59.085Z,112.50
2017-10-11T08:25:59.121Z,112.50
2017-10-11T08:27:53.435Z,112.50
2017-10-11T08:29:03.289Z,112.50
2017-10-11T08:30:46.886Z,112.50
2017-10-11T08:31:46.926Z,112.50
2017-10-11T08:33:40.207Z,106.88
2017-10-11T08:34:40.284Z,106.88
2017-10-11T08:36:34.637Z,106.88
2017-10-11T08:37:34.628Z,112.50
2017-10-11T08:39:28.025Z,112.50
2017-10-11T08:40:28.035Z,112.50
2017-10-11T08:42:21.467Z,118.13
2017-10-11T08:43:21.447Z,112.50
2017-10-11T08:45:14.895Z,118.13
2017-10-11T08:46:14.844Z,118.13
2017-10-11T08:48:08.235Z,118.13
2017-10-11T08:49:08.247Z,118.13
2017-10-11T08:51:02.177Z,118.13
2017-10-11T08:52:10.978Z,118.13
2017-10-11T08:53:55.383Z,118.13
2017-10-11T08:55:03.925Z,118.13
2017-10-11T08:56:58.403Z,118.13
2017-10-11T08:57:58.522Z,118.13
2017-10-11T08:59:44.165Z,118.13
2017-10-11T09:00:51.962Z,123.75
2017-10-11T09:02:38.605Z,123.75
2017-10-11T09:03:38.443Z,123.75
2017-10-11T09:05:40.411Z,123.75
2017-10-11T09:06:40.508Z,123.75
2017-10-11T09:08:36.305Z,123.75
2017-10-11T09:09:35.817Z,123.75
2017-10-11T09:11:32.018Z,123.75
2017-10-11T09:12:33.359Z,123.75
2017-10-11T09:14:17.804Z,123.75
2017-10-11T09:15:16.605Z,123.75
2017-10-11T09:17:20.654Z,129.38
2017-10-11T09:18:12.758Z,129.38
2017-10-11T09:20:16.715Z,129.38
2017-10-11T09:21:08.344Z,129.38
2017-10-11T09:23:09.248Z,129.38
2017-10-11T09:24:01.616Z,135.00
2017-10-11T09:26:03.192Z,135.00
2017-10-11T09:26:54.928Z,135.00
2017-10-11T09:28:56.205Z,140.63
2017-10-11T09:29:48.383Z,140.63
2017-10-11T09:31:52.634Z,146.25
2017-10-11T09:32:51.418Z,140.63
2017-10-11T09:34:44.864Z,140.63
2017-10-11T09:35:36.200Z,140.63
2017-10-11T09:37:29.568Z,135.00
2017-10-11T09:38:29.643Z,135.00
2017-10-11T09:40:30.598Z,135.00
2017-10-11T09:41:22.968Z,135.00
2017-10-11T09:43:25.304Z,140.63
2017-10-11T09:44:25.043Z,151.88
2017-10-11T09:46:18.555Z,146.25
2017-10-11T09:47:10.642Z,146.25
2017-10-11T09:49:04.093Z,151.88
2017-10-11T09:50:04.066Z,157.50
2017-10-11T09:51:57.493Z,168.75
2017-10-11T09:52:57.468Z,208.13
2017-10-11T09:54:50.850Z,500.63
2017-10-11T09:55:50.822Z,1479.38
2017-10-11T09:57:45.206Z,2368.13
2017-10-11T09:58:45.268Z,2458.13
2017-10-11T10:00:39.700Z,2520.00
2017-10-11T10:01:38.713Z,2491.88
2017-10-11T10:03:32.076Z,2458.13
2017-10-11T10:04:32.091Z,2503.13
2017-10-11T10:06:26.586Z,2514.38
2017-10-11T10:07:26.500Z,2520.00
2017-10-11T10:09:20.889Z,2531.25
2017-10-11T10:10:20.952Z,2587.50
2017-10-11T10:12:14.334Z,2576.25
2017-10-11T10:13:14.344Z,2565.00
2017-10-11T10:15:17.807Z,2531.25
2017-10-11T10:16:15.344Z,2542.50
2017-10-11T10:18:02.377Z,2621.25
2017-10-11T10:19:02.441Z,2576.25
2017-10-11T10:21:04.445Z,2593.13
2017-10-11T10:21:56.847Z,2610.00
2017-10-11T10:23:51.249Z,2610.00
2017-10-11T10:24:59.767Z,2621.25
2017-10-11T10:26:45.528Z,2700.00
2017-10-11T10:27:45.570Z,2795.63
2017-10-11T10:29:39.834Z,2565.00
2017-10-11T10:30:39.861Z,2846.25
2017-10-11T10:32:33.331Z,2649.38
2017-10-11T10:33:33.361Z,2677.50
2017-10-11T10:35:26.797Z,2840.63
2017-10-11T10:36:26.786Z,2818.13
2017-10-11T10:38:20.232Z,2795.63
2017-10-11T10:39:20.260Z,2902.50
2017-10-11T10:41:13.722Z,2913.75
2017-10-11T10:42:13.752Z,2947.50
2017-10-11T10:44:07.188Z,2896.88
2017-10-11T10:45:07.129Z,2925.00
2017-10-11T10:47:01.744Z,2874.38
2017-10-11T10:48:01.579Z,2739.38
2017-10-11T10:49:55.114Z,2863.13
2017-10-11T10:50:55.104Z,3009.38
2017-10-11T10:52:49.435Z,2958.75
2017-10-11T10:53:49.451Z,2908.13
2017-10-11T10:55:43.099Z,2908.13
2017-10-11T10:56:43.856Z,2857.50
2017-10-11T10:58:36.467Z,2953.13
2017-10-11T10:59:44.031Z,3031.88
2017-10-11T11:01:29.756Z,2998.13
2017-10-11T11:02:29.827Z,3003.75
2017-10-11T11:04:23.316Z,3020.63
2017-10-11T11:05:23.291Z,3054.38
2017-10-11T11:07:16.703Z,2953.13
2017-10-11T11:08:16.730Z,2756.25
2017-10-11T11:10:10.144Z,2739.38
2017-10-11T11:11:10.158Z,2863.13
2017-10-11T11:13:03.537Z,2604.38
2017-10-11T11:14:03.593Z,2593.13
2017-10-11T11:15:56.999Z,2019.38
2017-10-11T11:16:57.068Z,1822.50
2017-10-11T11:18:50.439Z,1119.38
2017-10-11T11:19:50.480Z,1231.88
2017-10-11T11:21:44.039Z,1243.13
2017-10-11T11:22:43.926Z,1400.63
2017-10-11T11:24:37.370Z,1170.00
2017-10-11T11:25:37.366Z,978.75
2017-10-11T11:27:30.831Z,1125.00
2017-10-11T11:28:30.966Z,1102.50
2017-10-11T11:30:24.215Z,1378.13
2017-10-11T11:31:24.241Z,1507.50
2017-10-11T11:33:17.683Z,1366.88
2017-10-11T11:34:17.712Z,1063.13
2017-10-11T11:36:11.104Z,995.63
2017-10-11T11:37:11.152Z,1445.63
2017-10-11T11:39:04.589Z,1231.88
2017-10-11T11:40:04.577Z,1350.00
2017-10-11T11:41:58.032Z,1597.50
2017-10-11T11:42:58.014Z,1389.38
2017-10-11T11:44:51.410Z,1018.13
2017-10-11T11:45:51.437Z,731.25
2017-10-11T11:47:44.852Z,748.13
2017-10-11T11:48:44.849Z,1085.63
2017-10-11T11:50:38.285Z,1631.25
2017-10-11T11:51:38.297Z,1636.88
2017-10-11T11:53:31.738Z,984.38
2017-10-11T11:54:32.040Z,1625.63
2017-10-11T11:56:26.502Z,1586.25
2017-10-11T11:57:25.179Z,1518.75
2017-10-11T11:59:18.566Z,759.38
2017-10-11T12:00:18.583Z,810.00
2017-10-11T12:02:11.971Z,596.25
2017-10-11T12:03:12.042Z,804.38
2017-10-11T12:05:05.434Z,691.88
2017-10-11T12:06:05.420Z,523.13
2017-10-11T12:07:58.822Z,658.13
2017-10-11T12:08:58.855Z,607.50
2017-10-11T12:10:52.525Z,894.38
2017-10-11T12:11:52.545Z,821.25
2017-10-11T12:13:45.813Z,945.00
2017-10-11T12:14:46.095Z,1035.00
2017-10-11T12:16:40.422Z,1029.38
2017-10-11T12:17:40.275Z,1080.00
2017-10-11T12:19:33.761Z,1113.75
2017-10-11T12:20:42.830Z,1001.25
2017-10-11T12:22:29.950Z,1271.25
2017-10-11T12:23:30.210Z,1603.13
2017-10-11T12:25:23.980Z,973.13
2017-10-11T12:26:31.434Z,1147.50
2017-10-11T12:28:18.736Z,1681.88
2017-10-11T12:29:28.794Z,1901.25
2017-10-11T12:31:12.346Z,1456.88
2017-10-11T12:32:19.799Z,1344.38
2017-10-11T12:34:05.257Z,652.50
2017-10-11T12:35:16.052Z,1080.00
2017-10-11T12:37:00.645Z,748.13
2017-10-11T12:39:57.252Z,691.88
2017-10-11T12:40:55.785Z,630.00
2017-10-11T12:42:50.913Z,1012.50
2017-10-11T12:43:57.046Z,697.50
2017-10-11T12:45:51.117Z,573.75
2017-10-11T12:48:07.920Z,433.13
2017-10-11T12:49:07.672Z,399.38
2017-10-11T12:51:02.921Z,472.50
2017-10-11T12:53:56.808Z,343.13
2017-10-11T12:55:04.839Z,376.88
2017-10-11T12:56:51.595Z,315.00
2017-10-11T12:57:59.442Z,309.38
2017-10-11T12:59:56.950Z,286.88
2017-10-11T13:00:46.812Z,331.88
2017-10-11T13:02:39.392Z,281.25
2017-10-11T13:03:39.451Z,264.38
2017-10-11T13:05:33.673Z,253.13
2017-10-11T13:06:33.330Z,247.50
2017-10-11T13:08:32.225Z,247.50
2017-10-11T13:09:32.574Z,253.13
2017-10-11T13:11:25.644Z,270.00
2017-10-11T13:12:25.680Z,275.63
2017-10-11T13:14:20.078Z,303.75
2017-10-11T13:15:20.060Z,253.13
2017-10-11T13:17:13.496Z,258.75
2017-10-11T13:18:13.522Z,264.38
2017-10-11T13:20:07.516Z,253.13
2017-10-11T13:21:06.964Z,241.88
2017-10-11T13:23:01.697Z,230.63
2017-10-11T13:24:02.448Z,219.38
2017-10-11T13:25:55.482Z,230.63
2017-10-11T13:26:55.692Z,225.00
2017-10-11T13:28:48.716Z,213.75
2017-10-11T13:29:50.667Z,202.50
2017-10-11T13:31:43.235Z,196.88
2017-10-11T13:32:43.968Z,196.88
2017-10-11T13:34:37.690Z,191.25
2017-10-11T13:35:37.890Z,191.25
2017-10-11T13:37:44.035Z,185.63
2017-10-11T13:38:52.463Z,185.63
2017-10-11T13:40:38.318Z,191.25
2017-10-11T13:41:38.070Z,196.88
2017-10-11T13:43:46.231Z,202.50
2017-10-11T13:46:19.154Z,247.50
2017-10-11T13:47:10.128Z,258.75
2017-10-11T13:49:04.970Z,241.88
2017-10-11T13:51:17.516Z,213.75
2017-10-11T13:52:17.742Z,196.88
2017-10-11T13:54:11.992Z,185.63
2017-10-11T13:55:21.964Z,196.88
2017-10-11T13:57:05.391Z,180.00
2017-10-11T13:58:05.529Z,180.00
2017-10-11T14:00:08.791Z,180.00
2017-10-11T14:01:01.040Z,174.38
2017-10-11T14:02:53.518Z,174.38
2017-10-11T14:03:53.624Z,174.38
2017-10-11T14:05:55.940Z,168.75
2017-10-11T14:06:47.046Z,168.75
2017-10-11T14:08:41.341Z,163.13
2017-10-11T14:09:49.212Z,163.13
2017-10-11T14:11:35.019Z,168.75
2017-10-11T14:12:35.685Z,174.38
2017-10-11T14:14:37.656Z,168.75
2017-10-11T14:15:29.577Z,163.13
2017-10-11T14:17:23.241Z,157.50
2017-10-11T14:18:23.227Z,157.50
2017-10-11T14:20:17.764Z,157.50
2017-10-11T14:21:17.799Z,151.88
2017-10-11T14:23:12.391Z,140.63
2017-10-11T14:24:12.193Z,135.00
2017-10-11T14:26:06.812Z,129.38
2017-10-11T14:27:06.658Z,129.38
2017-10-11T14:29:00.133Z,123.75
2017-10-11T14:30:00.034Z,112.50
2017-10-11T14:31:54.555Z,118.13
2017-10-11T14:32:54.537Z,118.13
2017-10-11T14:34:47.980Z,118.13
2017-10-11T14:35:47.946Z,118.13
2017-10-11T14:37:42.443Z,112.50
2017-10-11T14:38:42.290Z,112.50
2017-10-11T14:40:35.733Z,112.50
2017-10-11T14:41:43.525Z,112.50
2017-10-11T14:43:29.137Z,106.88
2017-10-11T14:44:29.177Z,106.88
2017-10-11T14:46:22.535Z,106.88
2017-10-11T14:47:22.573Z,106.88
2017-10-11T14:49:16.995Z,101.25
2017-10-11T14:50:16.966Z,101.25
2017-10-11T14:52:11.399Z,95.63
2017-10-11T14:53:11.416Z,95.63
2017-10-11T14:55:04.842Z,90.00
2017-10-11T14:56:04.829Z,90.00
2017-10-11T14:57:59.360Z,90.00
2017-10-11T14:58:59.248Z,84.38
2017-10-11T15:00:52.674Z,84.38
2017-10-11T15:01:52.695Z,84.38
2017-10-11T15:03:47.028Z,78.75
2017-10-11T15:04:47.056Z,78.75
2017-10-11T15:06:40.459Z,78.75
2017-10-11T15:07:40.466Z,78.75
2017-10-11T15:09:33.870Z,78.75
2017-10-11T15:10:33.931Z,73.13
2017-10-11T15:12:27.371Z,73.13
2017-10-11T15:13:27.356Z,73.13
2017-10-11T15:15:20.704Z,73.13
2017-10-11T15:16:20.714Z,73.13
2017-10-11T15:18:15.107Z,73.13
2017-10-11T15:19:15.101Z,73.13
2017-10-11T15:21:09.531Z,67.50
2017-10-11T15:22:09.518Z,67.50
2017-10-11T15:24:04.074Z,67.50
2017-10-11T15:25:03.922Z,67.50
2017-10-11T15:26:58.506Z,61.88
2017-10-11T15:27:57.412Z,61.88
2017-10-11T15:29:51.336Z,61.88
2017-10-11T15:30:50.834Z,61.88
2017-10-11T15:32:44.259Z,61.88
2017-10-11T15:33:44.931Z,61.88
2017-10-11T15:35:37.752Z,56.25
2017-10-11T15:36:37.682Z,56.25
2017-10-11T15:38:31.073Z,56.25
2017-10-11T15:39:31.693Z,56.25
2017-10-11T15:41:25.082Z,56.25
2017-10-11T15:42:25.667Z,50.63
2017-10-11T15:44:18.513Z,50.63
2017-10-11T15:45:18.481Z,50.63
2017-10-11T15:47:15.129Z,50.63
2017-10-11T15:48:12.949Z,50.63
2017-10-11T15:50:08.204Z,45.00
2017-10-11T15:51:08.384Z,45.00
2017-10-11T15:53:07.561Z,45.00
2017-10-11T15:54:01.926Z,45.00
2017-10-11T15:55:56.077Z,45.00
2017-10-11T15:56:55.828Z,39.38
2017-10-11T15:58:49.695Z,39.38
2017-10-11T15:59:50.027Z,39.38
2017-10-11T16:01:42.719Z,39.38
2017-10-11T16:02:42.749Z,39.38
2017-10-11T16:04:36.150Z,33.75
2017-10-11T16:05:36.179Z,33.75
2017-10-11T16:07:29.566Z,33.75
2017-10-11T16:08:29.580Z,33.75
2017-10-11T16:10:23.773Z,28.13
2017-10-11T16:11:23.351Z,28.13
2017-10-11T16:13:17.377Z,28.13
2017-10-11T16:14:17.372Z,28.13
2017-10-11T16:16:10.784Z,22.50
2017-10-11T16:17:10.787Z,22.50
2017-10-11T16:19:04.213Z,22.50
2017-10-11T16:20:04.262Z,22.50
2017-10-11T16:21:58.604Z,16.88
2017-10-11T16:22:58.647Z,16.88
2017-10-11T16:24:53.076Z,16.88
2017-10-11T16:25:53.089Z,16.88
2017-10-11T16:27:47.500Z,11.25
2017-10-11T16:28:47.521Z,11.25
2017-10-11T16:30:40.944Z,11.25
2017-10-11T16:31:40.879Z,11.25
2017-10-11T16:33:34.327Z,5.63
2017-10-11T16:34:34.339Z,5.63
2017-10-11T16:36:27.712Z,5.63
2017-10-11T16:37:27.765Z,5.63
2017-10-11T16:39:21.183Z,5.63
2017-10-11T16:40:21.243Z,5.63
2017-10-11T16:42:14.661Z,0.00
2017-10-11T16:43:15.159Z,0.00
2017-10-11T16:45:09.485Z,0.00
2017-10-11T16:46:08.857Z,0.00
2017-10-11T16:48:03.297Z,0.00
2017-10-11T16:49:03.290Z,0.00
2017-10-11T16:50:56.561Z,0.00
2017-10-11T16:51:56.512Z,0.00
2017-10-11T16:53:49.948Z,0.00
2017-10-11T16:54:50.422Z,0.00
2017-10-11T16:56:43.593Z,0.00
2017-10-11T16:57:44.017Z,0.00
2017-10-11T16:59:49.946Z,0.00
2017-10-11T17:00:52.790Z,0.00
2017-10-11T17:02:43.936Z,0.00
2017-10-11T17:03:45.231Z,0.00
2017-10-11T17:05:36.514Z,0.00
2017-10-11T17:06:36.722Z,0.00
2017-10-11T17:08:29.912Z,0.00
2017-10-11T17:09:30.039Z,0.00
2017-10-11T17:11:23.529Z,0.00
2017-10-11T17:12:23.372Z,0.00
2017-10-11T17:14:16.789Z,0.00
2017-10-11T17:15:16.759Z,0.00
2017-10-11T17:17:10.154Z,0.00
2017-10-11T17:18:10.248Z,0.00
2017-10-11T17:20:04.893Z,0.00
2017-10-11T17:21:04.470Z,0.00
2017-10-11T17:22:59.632Z,0.00
2017-10-11T17:23:58.846Z,0.00
2017-10-11T17:25:52.225Z,0.00
2017-10-11T17:26:52.266Z,0.00
2017-10-11T17:28:45.674Z,0.00
2017-10-11T17:29:45.666Z,0.00
2017-10-11T17:31:39.049Z,0.00
2017-10-11T17:32:39.064Z,0.00
2017-10-11T17:34:33.509Z,0.00
2017-10-11T17:35:33.473Z,0.00
2017-10-11T17:37:26.887Z,0.00
2017-10-11T17:38:26.888Z,0.00
2017-10-11T17:40:20.281Z,0.00
2017-10-11T17:41:20.288Z,0.00
2017-10-11T17:43:13.717Z,0.00
2017-10-11T17:44:13.706Z,0.00
2017-10-11T17:46:07.084Z,0.00
2017-10-11T17:47:07.080Z,0.00
2017-10-11T17:49:00.515Z,0.00
2017-10-11T17:50:00.518Z,0.00
2017-10-11T17:51:53.875Z,0.00
2017-10-11T17:52:53.877Z,0.00
2017-10-11T17:54:47.294Z,0.00
2017-10-11T17:55:47.319Z,0.00
2017-10-11T17:57:40.720Z,0.00
2017-10-11T17:58:40.721Z,0.00
2017-10-11T18:00:34.151Z,0.00
2017-10-11T18:01:34.178Z,0.00
2017-10-11T18:03:28.580Z,0.00
2017-10-11T18:04:28.613Z,0.00
2017-10-11T18:06:21.943Z,0.00
2017-10-11T18:07:21.968Z,0.00
2017-10-11T18:09:15.309Z,0.00
2017-10-11T18:10:15.339Z,0.00
2017-10-11T18:12:08.794Z,0.00
2017-10-11T18:13:08.773Z,0.00
2017-10-11T18:15:02.187Z,0.00
2017-10-11T18:16:02.185Z,0.00
2017-10-11T18:17:55.628Z,0.00
2017-10-11T18:18:55.555Z,0.00
2017-10-11T18:20:49.000Z,0.00
2017-10-11T18:21:49.016Z,0.00
2017-10-11T18:23:43.393Z,0.00
2017-10-11T18:24:43.437Z,0.00
2017-10-11T18:26:37.851Z,0.00
2017-10-11T18:27:37.790Z,0.00
2017-10-11T18:29:32.289Z,0.00
2017-10-11T18:30:32.419Z,0.00
2017-10-11T18:32:25.675Z,0.00
2017-10-11T18:33:25.680Z,0.00
2017-10-11T18:35:19.068Z,0.00
2017-10-11T18:36:19.038Z,0.00
2017-10-11T18:38:12.430Z,0.00
2017-10-11T18:39:12.481Z,0.00
2017-10-11T18:41:06.833Z,0.00
2017-10-11T18:42:06.856Z,0.00
2017-10-11T18:44:00.317Z,0.00
2017-10-11T18:45:00.325Z,0.00
2017-10-11T18:46:54.828Z,0.00